createdAt,value
2022-12-19T00:03:11.667Z,100331.03
2022-12-19T00:08:17.828Z,100387.63
2022-12-19T00:13:20.309Z,100346.00
2022-12-19T00:18:22.656Z,100373.22
2022-12-19T00:23:24.991Z,100263.44
2022-12-19T00:28:27.441Z,100361.16
2022-12-19T00:33:29.857Z,100391.50
2022-12-19T00:38:33.250Z,100185.25
2022-12-19T00:43:36.809Z,100343.38
2022-12-19T00:48:39.119Z,100331.03
2022-12-19T00:53:41.430Z,100299.78
2022-12-19T00:58:47.151Z,100390.38
2022-12-19T01:04:19.120Z,100339.69
2022-12-19T01:09:12.943Z,100269.25
2022-12-19T01:14:22.293Z,100325.03
2022-12-19T01:19:27.207Z,100329.47
2022-12-19T01:24:29.501Z,100368.13
2022-12-19T01:29:33.532Z,100370.16
2022-12-19T01:34:37.793Z,100322.28
2022-12-19T01:39:40.012Z,100307.44
2022-12-19T01:45:08.431Z,100358.44
2022-12-19T01:50:16.435Z,100289.97
2022-12-19T01:55:19.924Z,100194.03
2022-12-19T02:00:24.024Z,100276.66
2022-12-19T02:05:26.599Z,100339.34
2022-12-19T02:10:28.946Z,100284.94
2022-12-19T02:15:37.316Z,100238.91
2022-12-19T02:21:01.981Z,100341.22
2022-12-19T02:26:14.981Z,100209.44
2022-12-19T02:31:27.123Z,100301.16
2022-12-19T02:36:42.664Z,100315.34
2022-12-19T02:41:51.863Z,100258.84
2022-12-19T02:46:59.318Z,100245.25
2022-12-19T02:52:20.601Z,100301.31
2022-12-19T02:57:30.539Z,100223.53
2022-12-19T03:03:18.498Z,100182.72
2022-12-19T03:08:25.585Z,100217.84
2022-12-19T03:13:35.881Z,100231.91
2022-12-19T03:18:38.641Z,100261.41
2022-12-19T03:23:41.591Z,100178.19
2022-12-19T03:28:54.403Z,100275.59
2022-12-19T03:34:00.066Z,100224.75
2022-12-19T03:39:04.857Z,100149.66
2022-12-19T03:44:08.200Z,100117.34
2022-12-19T03:49:11.190Z,100211.28
2022-12-19T03:54:19.476Z,100178.00
2022-12-19T03:59:38.252Z,100171.19
2022-12-19T04:04:43.196Z,100204.47
2022-12-19T04:09:48.726Z,100168.59
2022-12-19T04:14:51.750Z,100205.47
2022-12-19T04:20:07.896Z,100235.03
2022-12-19T04:25:13.485Z,100236.97
2022-12-19T04:30:17.542Z,100209.50
2022-12-19T04:35:19.851Z,100178.09
2022-12-19T04:40:23.969Z,100219.91
2022-12-19T04:45:29.169Z,100197.44
2022-12-19T04:50:33.486Z,100159.72
2022-12-19T04:55:35.727Z,100169.16
2022-12-19T05:00:37.972Z,100148.88
2022-12-19T05:05:40.284Z,100213.72
2022-12-19T05:10:42.929Z,100151.47
2022-12-19T05:15:56.421Z,100127.50
2022-12-19T05:20:58.905Z,100197.53
2022-12-19T05:26:02.319Z,100232.78
2022-12-19T05:31:20.038Z,100123.03
2022-12-19T05:36:26.423Z,100123.22
2022-12-19T05:41:31.459Z,100197.97
2022-12-19T05:46:33.819Z,100212.13
2022-12-19T05:51:36.070Z,100195.09
2022-12-19T05:56:38.312Z,100185.19
2022-12-19T06:01:41.028Z,100115.03
2022-12-19T06:06:43.371Z,100164.63
2022-12-19T06:11:45.527Z,100156.34
2022-12-19T06:16:48.401Z,100246.47
2022-12-19T06:21:50.791Z,100192.09
2022-12-19T06:26:53.055Z,100198.94
2022-12-19T06:31:56.031Z,100094.66
2022-12-19T06:36:58.305Z,100140.00
2022-12-19T06:42:19.030Z,100236.06
2022-12-19T06:47:22.503Z,100230.34
2022-12-19T06:52:24.785Z,100182.34
2022-12-19T06:57:27.060Z,100134.34
2022-12-19T07:02:31.259Z,100180.69
2022-12-19T07:07:34.011Z,100221.88
2022-12-19T07:12:36.621Z,100235.06
2022-12-19T07:17:39.271Z,100259.50
2022-12-19T07:22:41.945Z,100173.22
2022-12-19T07:27:45.054Z,100214.38
2022-12-19T07:32:47.298Z,100151.50
2022-12-19T07:37:50.874Z,100159.50
2022-12-19T07:42:53.126Z,100188.56
2022-12-19T07:47:55.564Z,100195.44
2022-12-19T07:52:58.694Z,100201.53
2022-12-19T07:58:01.007Z,100218.81
2022-12-19T08:03:03.478Z,100010.25
2022-12-19T08:08:10.263Z,100153.75
2022-12-19T08:13:13.757Z,100030.38
2022-12-19T08:18:15.981Z,100212.78
2022-12-19T08:23:18.263Z,100174.16
2022-12-19T08:28:20.558Z,100181.88
2022-12-19T08:33:22.783Z,100239.53
2022-12-19T08:38:24.993Z,100176.31
2022-12-19T08:43:28.044Z,100241.53
2022-12-19T08:48:31.811Z,100205.59
2022-12-19T08:53:37.641Z,99918.50
2022-12-19T08:58:41.714Z,100158.56
2022-12-19T09:04:08.834Z,100182.56
2022-12-19T09:09:07.370Z,100221.84
2022-12-19T09:14:12.009Z,100179.34
2022-12-19T09:19:17.194Z,100163.94
2022-12-19T09:24:19.815Z,100168.50
2022-12-19T09:29:22.513Z,100204.03
2022-12-19T09:34:38.116Z,100147.41
2022-12-19T09:39:41.164Z,100191.66
2022-12-19T09:44:53.435Z,100224.91
2022-12-19T09:49:55.850Z,100163.91
2022-12-19T09:55:04.312Z,100181.31
2022-12-19T10:00:15.947Z,100226.00
2022-12-19T10:07:11.013Z,100229.75
2022-12-19T10:12:43.157Z,100191.69
2022-12-19T10:17:22.099Z,100154.19
2022-12-19T10:22:38.715Z,100224.56
2022-12-19T10:28:00.456Z,100175.06
2022-12-19T10:33:30.169Z,100216.84
2022-12-19T10:38:34.799Z,100229.72
2022-12-19T10:43:54.029Z,100218.97
2022-12-19T10:48:56.282Z,100197.44
2022-12-19T10:54:00.535Z,100213.41
2022-12-19T10:59:03.408Z,100185.47
2022-12-19T11:04:32.161Z,100239.09
2022-12-19T11:09:38.483Z,100247.75
2022-12-19T11:21:20.072Z,100208.66
2022-12-19T11:29:38.399Z,100249.44
2022-12-19T11:30:05.877Z,100178.38
2022-12-19T11:36:39.836Z,100226.91
2022-12-19T11:41:48.908Z,100225.16
2022-12-19T11:47:33.103Z,100227.16
2022-12-19T11:53:05.965Z,100226.50
2022-12-19T11:58:11.743Z,100192.00
2022-12-19T12:03:29.623Z,100253.25
2022-12-19T12:11:53.431Z,100208.97
2022-12-19T12:24:56.060Z,100202.78
2022-12-19T12:31:10.256Z,100272.56
2022-12-19T12:31:51.871Z,100276.13
2022-12-19T12:35:33.641Z,100281.69
2022-12-19T12:42:33.466Z,100304.88
2022-12-19T12:47:36.465Z,100257.69
2022-12-19T12:52:44.624Z,100232.19
2022-12-19T12:57:46.914Z,100289.34
2022-12-19T13:03:05.250Z,100299.38
2022-12-19T13:08:44.401Z,100309.00
2022-12-19T13:13:58.378Z,100305.69
2022-12-19T13:19:19.577Z,100285.59
2022-12-19T13:24:23.565Z,100007.91
2022-12-19T13:29:32.991Z,100078.72
2022-12-19T13:34:38.262Z,100323.91
2022-12-19T13:40:18.504Z,100318.34
2022-12-19T13:45:29.068Z,100298.13
2022-12-19T13:50:35.112Z,100256.28
2022-12-19T13:55:40.180Z,100335.34
2022-12-19T14:00:43.442Z,100277.47
2022-12-19T14:06:17.345Z,100277.84
2022-12-19T14:11:37.673Z,100288.47
2022-12-19T14:16:40.206Z,100246.19
2022-12-19T14:22:04.707Z,100325.25
2022-12-19T14:28:20.125Z,100293.13
2022-12-19T14:33:40.997Z,100288.38
2022-12-19T14:39:19.846Z,100306.34
2022-12-19T14:43:59.872Z,100342.22
2022-12-19T14:53:27.802Z,100328.69
2022-12-19T14:59:49.398Z,100342.63
2022-12-19T15:05:04.335Z,100304.47
2022-12-19T15:11:03.854Z,100305.47
2022-12-19T15:15:55.351Z,100350.88
2022-12-19T15:20:59.568Z,100299.47
2022-12-19T15:26:08.569Z,100169.41
2022-12-19T15:31:24.642Z,100319.56
2022-12-19T15:36:27.069Z,100294.34
2022-12-19T15:41:29.915Z,100284.69
2022-12-19T15:46:33.025Z,100307.44
2022-12-19T15:51:35.753Z,100276.25
2022-12-19T15:56:41.235Z,100303.97
2022-12-19T16:01:43.705Z,100320.44
2022-12-19T16:06:46.177Z,100234.41
2022-12-19T16:11:49.940Z,100310.31
2022-12-19T16:16:55.834Z,100332.66
2022-12-19T16:21:58.767Z,100377.03
2022-12-19T16:27:01.312Z,100337.63
2022-12-19T16:32:06.633Z,100369.81
2022-12-19T16:37:09.203Z,100333.16
2022-12-19T16:42:16.655Z,100325.84
2022-12-19T16:47:18.969Z,100338.72
2022-12-19T16:52:21.347Z,100346.41
2022-12-19T16:57:23.623Z,100353.16
2022-12-19T17:02:39.722Z,100361.59
2022-12-19T17:07:42.234Z,100341.50
2022-12-19T17:12:45.548Z,100396.50
2022-12-19T17:17:48.111Z,100293.56
2022-12-19T17:22:50.488Z,100325.13
2022-12-19T17:27:54.547Z,100343.38
2022-12-19T17:32:57.230Z,100358.72
2022-12-19T17:38:00.039Z,100350.81
2022-12-19T17:43:03.585Z,100361.69
2022-12-19T17:48:10.146Z,100414.59
2022-12-19T17:53:16.354Z,100378.13
2022-12-19T17:58:21.867Z,100348.03
2022-12-19T18:03:26.617Z,100383.72
2022-12-19T18:08:32.346Z,100385.50
2022-12-19T18:13:35.641Z,100416.69
2022-12-19T18:18:38.272Z,100370.59
2022-12-19T18:23:43.416Z,100382.69
2022-12-19T18:28:46.023Z,100372.47
2022-12-19T18:33:51.998Z,100348.72
2022-12-19T18:38:57.513Z,100376.03
2022-12-19T18:44:01.741Z,100391.94
2022-12-19T18:49:07.119Z,100388.47
2022-12-19T18:54:21.922Z,100410.88
2022-12-19T18:59:28.660Z,100415.22
2022-12-19T19:04:37.552Z,100357.38
2022-12-19T19:09:41.760Z,100342.69
2022-12-19T19:15:06.315Z,100342.47
2022-12-19T19:20:09.226Z,100382.56
2022-12-19T19:25:17.484Z,100418.47
2022-12-19T19:30:20.617Z,100402.66
2022-12-19T19:35:24.786Z,100403.66
2022-12-19T19:40:27.486Z,100376.25
2022-12-19T19:45:31.188Z,100406.03
2022-12-19T19:50:33.524Z,100383.72
2022-12-19T19:55:35.874Z,100215.66
2022-12-19T20:00:38.211Z,100303.53
2022-12-19T20:05:40.481Z,100375.50
2022-12-19T20:10:42.735Z,100411.28
2022-12-19T20:15:49.764Z,100413.84
2022-12-19T20:20:52.451Z,100428.28
2022-12-19T20:25:54.717Z,100430.75
2022-12-19T20:30:57.615Z,100437.41
2022-12-19T20:36:08.435Z,100422.06
2022-12-19T20:41:10.774Z,100442.28
2022-12-19T20:46:15.502Z,100400.50
2022-12-19T20:51:19.452Z,100300.59
2022-12-19T20:56:23.530Z,100392.38
2022-12-19T21:01:25.973Z,100391.66
2022-12-19T21:06:28.632Z,100396.72
2022-12-19T21:11:31.076Z,100416.72
2022-12-19T21:16:33.413Z,100447.97
2022-12-19T21:21:35.780Z,100374.31
2022-12-19T21:26:38.174Z,100392.22
2022-12-19T21:31:40.547Z,100416.44
2022-12-19T21:36:42.803Z,100366.19
2022-12-19T21:41:45.102Z,100427.41
2022-12-19T21:46:47.366Z,100390.22
2022-12-19T21:51:49.886Z,100409.19
2022-12-19T21:56:52.100Z,100383.41
2022-12-19T22:01:54.590Z,100440.75
2022-12-19T22:06:57.008Z,100419.41
2022-12-19T22:11:59.434Z,100403.44
2022-12-19T22:17:01.632Z,100394.97
2022-12-19T22:22:04.260Z,100403.44
2022-12-19T22:27:06.531Z,100270.16
2022-12-19T22:32:08.784Z,100431.88
2022-12-19T22:37:11.037Z,100452.13
2022-12-19T22:42:13.340Z,100410.44
2022-12-19T22:47:15.563Z,100380.19
2022-12-19T22:52:17.829Z,100335.88
2022-12-19T22:57:21.733Z,100331.13
2022-12-19T23:02:24.154Z,100375.66
2022-12-19T23:07:26.491Z,100415.56
2022-12-19T23:12:28.686Z,100392.34
2022-12-19T23:17:31.067Z,100393.22
2022-12-19T23:22:33.336Z,100274.81
2022-12-19T23:27:35.840Z,100396.97
2022-12-19T23:32:38.161Z,100335.44
2022-12-19T23:37:40.461Z,100356.88
2022-12-19T23:42:42.615Z,100325.78
2022-12-19T23:47:47.128Z,100439.78
2022-12-19T23:52:49.297Z,100379.66
2022-12-19T23:57:51.607Z,100367.09
